createdAt,value
2023-02-12T00:00:52.687Z,95.21
2023-02-12T00:03:19.118Z,95.25
2023-02-12T00:05:45.739Z,96.66
2023-02-12T00:08:16.166Z,95.62
2023-02-12T00:10:46.449Z,95.21
2023-02-12T00:13:13.137Z,95.13
2023-02-12T00:15:40.670Z,95.79
2023-02-12T00:18:07.544Z,97.01
2023-02-12T00:20:34.346Z,94.68
2023-02-12T00:23:03.241Z,95.30
2023-02-12T00:25:29.871Z,94.89
2023-02-12T00:27:56.238Z,95.45
2023-02-12T00:30:22.704Z,94.44
2023-02-12T00:32:49.239Z,95.23
2023-02-12T00:35:16.153Z,94.96
2023-02-12T00:37:42.764Z,95.70
2023-02-12T00:40:09.708Z,95.17
2023-02-12T00:42:36.056Z,95.92
2023-02-12T00:45:04.747Z,96.04
2023-02-12T00:47:31.178Z,96.29
2023-02-12T00:49:57.550Z,95.50
2023-02-12T00:52:23.883Z,96.26
2023-02-12T00:54:50.290Z,96.07
2023-02-12T00:57:16.652Z,95.25
2023-02-12T00:59:43.096Z,95.87
2023-02-12T01:02:09.615Z,94.39
2023-02-12T01:04:36.093Z,94.59
2023-02-12T01:07:02.595Z,95.85
2023-02-12T01:09:29.154Z,96.47
2023-02-12T01:11:55.561Z,96.32
2023-02-12T01:14:22.028Z,96.37
2023-02-12T01:16:48.529Z,96.69
2023-02-12T01:19:15.319Z,96.88
2023-02-12T01:21:44.128Z,97.53
2023-02-12T01:24:15.573Z,97.02
2023-02-12T01:26:42.071Z,96.65
2023-02-12T01:29:11.688Z,97.47
2023-02-12T01:31:39.847Z,97.18
2023-02-12T01:34:07.817Z,96.02
2023-02-12T01:36:37.415Z,96.16
2023-02-12T01:39:05.481Z,96.39
2023-02-12T01:41:40.455Z,97.87
2023-02-12T01:44:13.006Z,96.45
2023-02-12T01:46:39.975Z,97.81
2023-02-12T01:49:12.528Z,97.70
2023-02-12T01:51:40.629Z,98.65
2023-02-12T01:54:09.900Z,98.90
2023-02-12T01:56:36.524Z,97.46
2023-02-12T01:59:03.392Z,97.92
2023-02-12T02:01:32.466Z,98.30
2023-02-12T02:04:05.350Z,99.11
2023-02-12T02:06:39.660Z,97.15
2023-02-12T02:09:06.232Z,97.95
2023-02-12T02:11:50.965Z,98.09
2023-02-12T02:14:32.844Z,96.90
2023-02-12T02:17:20.665Z,98.12
2023-02-12T02:20:24.273Z,98.15
2023-02-12T02:23:12.880Z,98.50
2023-02-12T02:26:04.174Z,96.61
2023-02-12T02:28:42.958Z,97.95
2023-02-12T02:31:41.035Z,98.04
2023-02-12T02:34:19.320Z,99.19
2023-02-12T02:37:00.569Z,99.45
2023-02-12T02:39:59.856Z,99.56
2023-02-12T02:42:37.586Z,99.03
2023-02-12T02:45:18.822Z,98.53
2023-02-12T02:47:55.957Z,98.67
2023-02-12T02:50:25.936Z,98.35
2023-02-12T02:52:57.225Z,98.74
2023-02-12T02:55:26.931Z,98.22
2023-02-12T02:58:05.988Z,98.73
2023-02-12T03:00:38.809Z,98.17
2023-02-12T03:03:17.016Z,97.42
2023-02-12T03:05:49.629Z,98.68
2023-02-12T03:08:25.130Z,99.32
2023-02-12T03:10:57.464Z,100.00
2023-02-12T03:13:34.088Z,99.83
2023-02-12T03:16:06.863Z,99.74
2023-02-12T03:18:42.801Z,99.45
2023-02-12T03:21:13.981Z,100.00
2023-02-12T03:23:52.872Z,100.00
2023-02-12T03:26:31.015Z,100.00
2023-02-12T03:28:57.456Z,100.00
2023-02-12T03:31:45.523Z,99.93
2023-02-12T03:34:35.063Z,100.00
2023-02-12T03:37:18.004Z,100.00
2023-02-12T03:40:00.919Z,100.00
2023-02-12T03:42:33.769Z,100.00
2023-02-12T03:45:33.824Z,100.00
2023-02-12T03:48:28.781Z,100.00
2023-02-12T03:51:13.214Z,99.98
2023-02-12T03:53:39.685Z,100.00
2023-02-12T03:56:14.075Z,99.55
2023-02-12T03:58:42.943Z,99.86
2023-02-12T04:01:09.979Z,100.00
2023-02-12T04:03:36.625Z,100.00
2023-02-12T04:06:03.458Z,98.69
2023-02-12T04:08:32.384Z,99.55
2023-02-12T04:11:13.571Z,99.36
2023-02-12T04:13:54.755Z,99.20
2023-02-12T04:16:37.853Z,99.53
2023-02-12T04:19:04.899Z,100.00
2023-02-12T04:21:55.840Z,100.00
2023-02-12T04:24:40.361Z,99.38
2023-02-12T04:27:24.275Z,99.02
2023-02-12T04:30:05.680Z,100.00
2023-02-12T04:32:52.827Z,100.00
2023-02-12T04:35:22.447Z,100.00
2023-02-12T04:37:55.305Z,100.00
2023-02-12T04:40:23.056Z,100.00
2023-02-12T04:42:52.270Z,100.00
2023-02-12T04:45:31.276Z,100.00
2023-02-12T04:47:57.949Z,100.00
2023-02-12T04:50:24.772Z,99.63
2023-02-12T04:52:52.862Z,100.00
2023-02-12T04:55:19.534Z,100.00
2023-02-12T04:57:46.012Z,100.00
2023-02-12T05:00:17.399Z,100.00
2023-02-12T05:02:44.021Z,100.00
2023-02-12T05:05:10.658Z,100.00
2023-02-12T05:07:37.345Z,100.00
2023-02-12T05:10:04.192Z,100.00
2023-02-12T05:12:30.768Z,100.00
2023-02-12T05:14:57.999Z,99.87
2023-02-12T05:17:24.968Z,100.00
2023-02-12T05:19:51.766Z,100.00
2023-02-12T05:22:18.380Z,100.00
2023-02-12T05:24:45.395Z,100.00
2023-02-12T05:27:11.939Z,100.00
2023-02-12T05:29:38.840Z,100.00
2023-02-12T05:32:07.309Z,100.00
2023-02-12T05:34:36.720Z,100.00
2023-02-12T05:37:03.511Z,100.00
2023-02-12T05:39:39.273Z,100.00
2023-02-12T05:42:05.939Z,100.00
2023-02-12T05:44:32.464Z,100.00
2023-02-12T05:47:06.755Z,100.00
2023-02-12T05:49:36.439Z,100.00
2023-02-12T05:52:03.224Z,100.00
2023-02-12T05:54:29.643Z,100.00
2023-02-12T05:56:56.386Z,100.00
2023-02-12T05:59:23.823Z,100.00
2023-02-12T06:01:52.288Z,100.00
2023-02-12T06:04:29.328Z,100.00
2023-02-12T06:06:56.663Z,100.00
2023-02-12T06:09:23.866Z,100.00
2023-02-12T06:11:50.541Z,100.00
2023-02-12T06:14:21.505Z,100.00
2023-02-12T06:16:50.260Z,100.00
2023-02-12T06:22:03.582Z,100.00
2023-02-12T06:24:30.215Z,100.00
2023-02-12T06:26:58.774Z,100.00
2023-02-12T06:29:27.361Z,100.00
2023-02-12T06:31:57.757Z,100.00
2023-02-12T06:34:24.236Z,100.00
2023-02-12T06:36:53.454Z,100.00
2023-02-12T06:39:19.879Z,100.00
2023-02-12T06:41:46.636Z,100.00
2023-02-12T06:44:13.431Z,100.00
2023-02-12T06:46:42.133Z,100.00
2023-02-12T06:49:08.579Z,100.00
2023-02-12T06:51:40.336Z,100.00
2023-02-12T06:54:16.829Z,100.00
2023-02-12T06:56:46.645Z,100.00
2023-02-12T06:59:15.554Z,100.00
2023-02-12T07:01:42.438Z,100.00
2023-02-12T07:04:21.015Z,100.00
2023-02-12T07:06:47.857Z,100.00
2023-02-12T07:09:15.451Z,100.00
2023-02-12T07:11:41.851Z,100.00
2023-02-12T07:14:13.929Z,100.00
2023-02-12T07:16:40.645Z,100.00
2023-02-12T07:19:07.230Z,100.00
2023-02-12T07:21:42.783Z,100.00
2023-02-12T07:24:18.101Z,100.00
2023-02-12T07:26:44.670Z,100.00
2023-02-12T07:29:13.527Z,100.00
2023-02-12T07:31:41.749Z,100.00
2023-02-12T07:34:10.105Z,100.00
2023-02-12T07:36:37.530Z,100.00
2023-02-12T07:39:04.673Z,100.00
2023-02-12T07:41:34.009Z,100.00
2023-02-12T07:44:07.628Z,100.00
2023-02-12T07:46:39.576Z,100.00
2023-02-12T07:49:07.940Z,99.95
2023-02-12T07:51:35.667Z,99.24
2023-02-12T07:54:09.985Z,99.27
2023-02-12T07:56:40.842Z,99.53
2023-02-12T07:59:11.241Z,98.83
2023-02-12T08:01:46.208Z,98.61
2023-02-12T08:04:15.419Z,98.38
2023-02-12T08:06:45.044Z,98.64
2023-02-12T08:09:15.811Z,97.28
2023-02-12T08:11:42.895Z,97.45
2023-02-12T08:14:12.628Z,98.04
2023-02-12T08:16:40.943Z,98.27
2023-02-12T08:19:19.418Z,97.87
2023-02-12T08:21:57.314Z,96.69
2023-02-12T08:24:28.629Z,97.38
2023-02-12T08:26:55.958Z,97.42
2023-02-12T08:29:31.422Z,97.89
2023-02-12T08:32:03.216Z,98.11
2023-02-12T08:34:45.169Z,98.16
2023-02-12T08:37:14.805Z,97.25
2023-02-12T08:39:43.617Z,97.62
2023-02-12T08:42:14.799Z,96.74
2023-02-12T08:44:42.565Z,96.86
2023-02-12T08:47:10.047Z,95.48
2023-02-12T08:49:36.590Z,94.62
2023-02-12T08:52:05.236Z,94.33
2023-02-12T08:54:34.129Z,94.50
2023-02-12T08:57:02.422Z,93.50
2023-02-12T08:59:29.843Z,93.13
2023-02-12T09:01:56.849Z,93.11
2023-02-12T09:04:30.279Z,93.15
2023-02-12T09:06:59.414Z,93.59
2023-02-12T09:09:26.002Z,93.10
2023-02-12T09:11:56.478Z,92.77
2023-02-12T09:14:31.335Z,93.50
2023-02-12T09:17:03.253Z,92.68
2023-02-12T09:19:29.801Z,93.59
2023-02-12T09:21:58.982Z,92.68
2023-02-12T09:24:30.452Z,92.93
2023-02-12T09:26:57.023Z,92.95
2023-02-12T09:29:23.417Z,92.65
2023-02-12T09:31:52.284Z,92.16
2023-02-12T09:34:18.932Z,91.38
2023-02-12T09:36:47.815Z,91.61
2023-02-12T09:39:19.972Z,91.99
2023-02-12T09:42:08.430Z,91.48
2023-02-12T09:44:42.704Z,91.91
2023-02-12T09:47:30.283Z,90.90
2023-02-12T09:50:11.000Z,90.82
2023-02-12T09:52:37.860Z,90.34
2023-02-12T09:55:05.092Z,90.39
2023-02-12T09:57:37.822Z,90.03
2023-02-12T10:00:16.156Z,89.99
2023-02-12T10:02:42.821Z,89.76
2023-02-12T10:05:35.096Z,89.03
2023-02-12T10:08:26.071Z,89.38
2023-02-12T10:11:22.851Z,89.04
2023-02-12T10:14:08.313Z,89.06
2023-02-12T10:17:03.447Z,89.19
2023-02-12T10:19:51.229Z,88.57
2023-02-12T10:22:23.719Z,88.24
2023-02-12T10:24:59.258Z,87.80
2023-02-12T10:27:46.772Z,87.79
2023-02-12T10:30:23.774Z,87.81
2023-02-12T10:32:54.877Z,87.35
2023-02-12T10:35:25.035Z,87.56
2023-02-12T10:38:04.418Z,86.25
2023-02-12T10:40:37.720Z,87.64
2023-02-12T10:43:04.249Z,86.60
2023-02-12T10:45:33.969Z,86.39
2023-02-12T10:48:16.814Z,86.46
2023-02-12T10:51:05.360Z,86.08
2023-02-12T10:53:43.420Z,84.80
2023-02-12T10:56:13.059Z,84.99
2023-02-12T10:58:42.611Z,83.95
2023-02-12T11:01:19.871Z,84.26
2023-02-12T11:03:46.863Z,83.22
2023-02-12T11:06:22.753Z,84.07
2023-02-12T11:08:51.856Z,82.77
2023-02-12T11:11:23.023Z,82.21
2023-02-12T11:14:04.044Z,82.00
2023-02-12T11:16:32.284Z,82.27
2023-02-12T11:19:01.429Z,81.78
2023-02-12T11:21:28.133Z,81.54
2023-02-12T11:23:56.934Z,81.35
2023-02-12T11:26:30.666Z,81.08
2023-02-12T11:29:04.067Z,80.15
2023-02-12T11:31:33.550Z,80.39
2023-02-12T11:34:06.350Z,79.96
2023-02-12T11:36:36.088Z,80.36
2023-02-12T11:39:02.800Z,79.47
2023-02-12T11:41:41.175Z,80.09
2023-02-12T11:44:13.348Z,79.77
2023-02-12T11:46:40.154Z,80.17
2023-02-12T11:49:09.328Z,79.73
2023-02-12T11:51:36.644Z,79.38
2023-02-12T11:54:06.217Z,79.29
2023-02-12T11:56:45.526Z,77.88
2023-02-12T11:59:42.709Z,78.20
2023-02-12T12:02:23.621Z,78.13
2023-02-12T12:04:56.025Z,78.83
2023-02-12T12:07:32.015Z,78.05
2023-02-12T12:10:06.781Z,78.11
2023-02-12T12:12:42.013Z,77.95
2023-02-12T12:15:51.020Z,77.99
2023-02-12T12:18:52.743Z,77.91
2023-02-12T12:21:30.849Z,77.65
2023-02-12T12:24:02.713Z,77.93
2023-02-12T12:26:31.704Z,77.80
2023-02-12T12:29:14.048Z,77.64
2023-02-12T12:31:42.884Z,76.31
2023-02-12T12:34:13.793Z,75.33
2023-02-12T12:37:18.745Z,74.52
2023-02-12T12:39:54.253Z,75.03
2023-02-12T12:42:37.693Z,74.69
2023-02-12T12:45:31.843Z,73.95
2023-02-12T12:48:13.623Z,74.42
2023-02-12T12:50:46.801Z,73.76
2023-02-12T12:53:18.551Z,73.53
2023-02-12T12:56:00.274Z,74.10
2023-02-12T12:58:54.082Z,73.55
2023-02-12T13:01:26.233Z,74.44
2023-02-12T13:04:11.018Z,74.13
2023-02-12T13:06:37.442Z,74.57
2023-02-12T13:09:21.260Z,74.79
2023-02-12T13:12:02.956Z,74.17
2023-02-12T13:14:47.382Z,74.58
2023-02-12T13:17:41.106Z,74.78
2023-02-12T13:20:31.607Z,74.89
2023-02-12T13:23:09.504Z,75.16
2023-02-12T13:25:46.548Z,75.63
2023-02-12T13:28:19.301Z,75.71
2023-02-12T13:30:52.975Z,76.23
2023-02-12T13:33:27.245Z,76.14
2023-02-12T13:35:59.323Z,76.08
2023-02-12T13:38:30.890Z,76.61
2023-02-12T13:41:04.783Z,76.50
2023-02-12T13:43:50.065Z,76.19
2023-02-12T13:46:30.124Z,76.47
2023-02-12T13:49:10.960Z,75.89
2023-02-12T13:51:47.675Z,76.72
2023-02-12T13:54:27.097Z,76.05
2023-02-12T13:56:57.465Z,75.67
2023-02-12T13:59:32.977Z,76.06
2023-02-12T14:02:23.931Z,77.54
2023-02-12T14:04:55.753Z,77.07
2023-02-12T14:07:26.865Z,76.92
2023-02-12T14:09:53.208Z,76.78
2023-02-12T14:12:37.323Z,77.44
2023-02-12T14:15:18.109Z,77.20
2023-02-12T14:18:06.696Z,77.55
2023-02-12T14:20:37.390Z,78.06
2023-02-12T14:23:40.997Z,78.53
2023-02-12T14:26:14.379Z,78.02
2023-02-12T14:28:54.884Z,77.03
2023-02-12T14:31:23.547Z,77.44
2023-02-12T14:34:15.686Z,78.18
2023-02-12T14:37:09.150Z,78.97
2023-02-12T14:39:35.697Z,78.25
2023-02-12T14:42:14.673Z,78.97
2023-02-12T14:44:59.786Z,78.98
2023-02-12T14:47:29.290Z,79.39
2023-02-12T14:50:01.393Z,79.46
2023-02-12T14:52:35.181Z,79.46
2023-02-12T14:55:22.983Z,79.00
2023-02-12T14:57:54.775Z,80.06
2023-02-12T15:00:35.126Z,80.15
2023-02-12T15:03:27.176Z,80.85
2023-02-12T15:06:02.770Z,80.27
2023-02-12T15:08:44.643Z,79.98
2023-02-12T15:11:40.370Z,80.80
2023-02-12T15:14:24.638Z,81.16
2023-02-12T15:16:58.490Z,80.59
2023-02-12T15:19:43.311Z,80.75
2023-02-12T15:22:38.212Z,80.75
2023-02-12T15:25:24.661Z,81.49
2023-02-12T15:28:18.936Z,81.68
2023-02-12T15:30:48.988Z,82.02
2023-02-12T15:33:36.813Z,82.72
2023-02-12T15:36:04.801Z,82.92
2023-02-12T15:38:41.587Z,82.69
2023-02-12T15:41:09.156Z,83.36
2023-02-12T15:43:43.053Z,83.84
2023-02-12T15:46:17.870Z,83.76
2023-02-12T15:49:03.487Z,84.57
2023-02-12T15:51:44.198Z,82.50
2023-02-12T15:54:18.448Z,82.00
2023-02-12T15:56:48.324Z,83.46
2023-02-12T15:59:23.519Z,84.00
2023-02-12T16:01:58.756Z,84.42
2023-02-12T16:04:31.672Z,84.79
2023-02-12T16:07:00.121Z,85.32
2023-02-12T16:09:51.133Z,85.46
2023-02-12T16:12:31.859Z,85.65
2023-02-12T16:15:05.573Z,86.15
2023-02-12T16:17:34.327Z,86.10
2023-02-12T16:20:00.712Z,86.23
2023-02-12T16:22:40.997Z,86.29
2023-02-12T16:25:17.608Z,85.89
2023-02-12T16:27:59.538Z,86.11
2023-02-12T16:30:30.896Z,86.48
2023-02-12T16:32:58.970Z,86.16
2023-02-12T16:35:40.215Z,86.50
2023-02-12T16:38:45.097Z,87.52
2023-02-12T16:41:16.093Z,87.75
2023-02-12T16:43:43.682Z,87.54
2023-02-12T16:46:12.805Z,88.17
2023-02-12T16:48:42.798Z,88.57
2023-02-12T16:51:29.870Z,89.79
2023-02-12T16:54:07.272Z,89.67
2023-02-12T16:56:40.310Z,90.38
2023-02-12T16:59:09.090Z,90.79
2023-02-12T17:01:37.000Z,91.10
2023-02-12T17:04:18.561Z,93.05
2023-02-12T17:06:47.939Z,94.13
2023-02-12T17:09:14.429Z,94.47
2023-02-12T17:11:42.185Z,95.14
2023-02-12T17:14:16.882Z,95.28
2023-02-12T17:16:43.908Z,95.18
2023-02-12T17:19:13.956Z,95.51
2023-02-12T17:21:43.670Z,96.63
2023-02-12T17:24:30.692Z,95.98
2023-02-12T17:27:01.974Z,97.62
2023-02-12T17:29:29.230Z,98.10
2023-02-12T17:32:00.190Z,98.69
2023-02-12T17:34:39.687Z,99.81
2023-02-12T17:37:15.682Z,100.00
2023-02-12T17:39:42.032Z,100.00
2023-02-12T17:42:08.573Z,100.00
2023-02-12T17:44:35.091Z,100.00
2023-02-12T17:47:01.472Z,100.00
2023-02-12T17:49:28.039Z,100.00
2023-02-12T17:51:54.590Z,100.00
2023-02-12T17:54:21.276Z,100.00
2023-02-12T17:56:50.621Z,100.00
2023-02-12T17:59:17.364Z,100.00
2023-02-12T18:01:44.152Z,100.00
2023-02-12T18:04:13.012Z,100.00
2023-02-12T18:06:39.615Z,100.00
2023-02-12T18:09:06.231Z,100.00
2023-02-12T18:11:33.037Z,100.00
2023-02-12T18:14:02.591Z,100.00
2023-02-12T18:16:31.668Z,100.00
2023-02-12T18:18:59.903Z,100.00
2023-02-12T18:21:26.457Z,100.00
2023-02-12T18:23:54.049Z,100.00
2023-02-12T18:26:21.353Z,100.00
2023-02-12T18:28:50.026Z,100.00
2023-02-12T18:31:19.320Z,100.00
2023-02-12T18:33:48.678Z,100.00
2023-02-12T18:36:17.500Z,100.00
2023-02-12T18:38:45.734Z,100.00
2023-02-12T18:41:18.023Z,100.00
2023-02-12T18:43:45.045Z,100.00
2023-02-12T18:46:20.643Z,100.00
2023-02-12T18:48:47.745Z,100.00
2023-02-12T18:51:21.025Z,100.00
2023-02-12T18:53:48.770Z,100.00
2023-02-12T18:56:15.320Z,100.00
2023-02-12T18:58:41.806Z,100.00
2023-02-12T19:01:15.728Z,100.00
2023-02-12T19:03:42.737Z,100.00
2023-02-12T19:06:09.145Z,100.00
2023-02-12T19:08:35.847Z,100.00
2023-02-12T19:11:04.577Z,100.00
2023-02-12T19:13:33.401Z,100.00
2023-02-12T19:16:03.024Z,100.00
2023-02-12T19:18:29.459Z,100.00
2023-02-12T19:21:01.337Z,100.00
2023-02-12T19:23:27.977Z,100.00
2023-02-12T19:26:06.256Z,100.00
2023-02-12T19:28:36.346Z,100.00
2023-02-12T19:31:18.192Z,100.00
2023-02-12T19:33:45.578Z,100.00
2023-02-12T19:36:18.176Z,100.00
2023-02-12T19:38:47.624Z,100.00
2023-02-12T19:41:17.431Z,100.00
2023-02-12T19:43:44.379Z,100.00
2023-02-12T19:46:17.763Z,100.00
2023-02-12T19:48:59.399Z,100.00
2023-02-12T19:51:33.428Z,100.00
2023-02-12T19:54:01.950Z,100.00
2023-02-12T19:56:28.687Z,100.00
2023-02-12T19:59:00.930Z,100.00
2023-02-12T20:01:28.700Z,100.00
2023-02-12T20:03:57.488Z,100.00
2023-02-12T20:06:27.389Z,100.00
2023-02-12T20:08:53.870Z,100.00
2023-02-12T20:11:24.140Z,100.00
2023-02-12T20:13:51.252Z,100.00
2023-02-12T20:16:20.265Z,100.00
2023-02-12T20:18:49.202Z,100.00
2023-02-12T20:21:25.645Z,100.00
2023-02-12T20:23:52.126Z,100.00
2023-02-12T20:26:19.840Z,100.00
2023-02-12T20:28:49.934Z,100.00
2023-02-12T20:31:22.091Z,100.00
2023-02-12T20:33:52.809Z,100.00
2023-02-12T20:36:19.325Z,100.00
2023-02-12T20:38:47.231Z,100.00
2023-02-12T20:41:13.756Z,100.00
2023-02-12T20:43:43.089Z,100.00
2023-02-12T20:46:15.416Z,100.00
2023-02-12T20:48:42.659Z,100.00
2023-02-12T20:51:14.448Z,100.00
2023-02-12T20:53:42.115Z,100.00
2023-02-12T20:56:16.202Z,100.00
2023-02-12T20:58:44.974Z,100.00
2023-02-12T21:01:19.590Z,100.00
2023-02-12T21:03:46.085Z,100.00
2023-02-12T21:06:15.665Z,100.00
2023-02-12T21:08:42.725Z,100.00
2023-02-12T21:11:20.729Z,100.00
2023-02-12T21:14:02.338Z,100.00
2023-02-12T21:16:34.814Z,100.00
2023-02-12T21:19:01.867Z,100.00
2023-02-12T21:21:34.203Z,100.00
2023-02-12T21:24:07.113Z,100.00
2023-02-12T21:26:36.191Z,100.00
2023-02-12T21:29:03.583Z,100.00
2023-02-12T21:31:33.341Z,100.00
2023-02-12T21:34:08.606Z,100.00
2023-02-12T21:36:39.613Z,100.00
2023-02-12T21:39:08.860Z,100.00
2023-02-12T21:41:41.650Z,100.00
2023-02-12T21:44:12.035Z,100.00
2023-02-12T21:46:41.450Z,100.00
2023-02-12T21:49:08.304Z,100.00
2023-02-12T21:51:42.205Z,100.00
2023-02-12T21:54:12.580Z,100.00
2023-02-12T21:56:44.134Z,100.00
2023-02-12T21:59:20.010Z,100.00
2023-02-12T22:01:49.823Z,100.00
2023-02-12T22:04:20.321Z,100.00
2023-02-12T22:06:51.003Z,100.00
2023-02-12T22:09:22.277Z,100.00
2023-02-12T22:11:52.605Z,100.00
2023-02-12T22:14:20.716Z,100.00
2023-02-12T22:16:47.770Z,100.00
2023-02-12T22:19:15.338Z,100.00
2023-02-12T22:21:44.890Z,100.00
2023-02-12T22:24:16.207Z,100.00
2023-02-12T22:26:46.028Z,100.00
2023-02-12T22:29:17.890Z,100.00
2023-02-12T22:31:48.578Z,100.00
2023-02-12T22:34:19.025Z,100.00
2023-02-12T22:36:46.782Z,100.00
2023-02-12T22:39:14.250Z,100.00
2023-02-12T22:41:44.364Z,100.00
2023-02-12T22:44:13.185Z,100.00
2023-02-12T22:46:43.217Z,100.00
2023-02-12T22:49:15.779Z,100.00
2023-02-12T22:51:47.228Z,100.00
2023-02-12T22:54:18.795Z,100.00
2023-02-12T22:56:46.928Z,100.00
2023-02-12T22:59:13.561Z,100.00
2023-02-12T23:01:46.671Z,100.00
2023-02-12T23:04:18.211Z,100.00
2023-02-12T23:06:47.125Z,100.00
2023-02-12T23:09:24.396Z,100.00
2023-02-12T23:11:51.065Z,100.00
2023-02-12T23:14:18.159Z,100.00
2023-02-12T23:16:45.360Z,100.00
2023-02-12T23:19:12.348Z,100.00
2023-02-12T23:21:41.941Z,100.00
2023-02-12T23:24:15.603Z,100.00
2023-02-12T23:26:44.564Z,100.00
2023-02-12T23:29:11.131Z,100.00
2023-02-12T23:31:37.692Z,100.00
2023-02-12T23:34:04.294Z,100.00
2023-02-12T23:36:36.254Z,100.00
2023-02-12T23:39:05.860Z,100.00
2023-02-12T23:41:34.848Z,100.00
2023-02-12T23:44:11.777Z,100.00
2023-02-12T23:46:38.379Z,100.00
2023-02-12T23:49:05.588Z,100.00
2023-02-12T23:51:32.614Z,100.00
2023-02-12T23:54:04.350Z,100.00
2023-02-12T23:56:30.936Z,100.00
2023-02-12T23:59:10.796Z,100.00
